Terminal Aerodrome Forecast
Issued by NWS Billings, MT

Home | Current Version | Previous Version | Text Only | Print | Product List | Glossary On
Versions: 1 2 3 4 5 6 7 8 9 10 11 12 13 14
000
FTUS45 KBYZ 211733
TAFBIL
TAF
KBIL 211733Z 2118/2218 04008KT P6SM -RA BKN040 OVC060
     FM220200 07008KT 4SM -RA SCT015 BKN020 OVC030
     FM221000 03010KT 6SM -RA SCT020 OVC030
     FM221500 02009KT P6SM VCSH BKN030 OVC050=

USA.gov is the U.S. government's official web portal to all federal, state and local government web resources and services.